Greenfield, Wisconsin
Current Conditions -  °F | °C
As of 7:52 PM on Monday 20 Oct 2014 (Local Time) from KMKE Reporting Station
Broken Clouds Broken Clouds  
Wind Chill: 53°   Ceiling: 5500
Heat Index: 53°   Visibility: 10mi
Dew Point: 42°   Wind: 8mph
Humidity: 66%   Direction: 320°NW
Pressure: 29.98"   Gusts: NA
Location:  42.97°N, 88°W
Report Text: KMKE 210052Z 32007KT 10SM BKN055 12/06 A2998 RMK AO2 SLP155 T01170056
Loading
Personal Weather Stations






























Interactive Weather Map
Tropical Storm Tracking
New forecast layout! Learn more

10-Day Weather Forecast

Advertisements
Track Severe Weather on mobile